Historyczne dane pomiarowe

Dodano dane terminowe – wersja testowa.

Dane z okresu 1951-2019

Wersja bazy: 1.34 [2019-03-16, lista zmian], aktualizacja planowana na 2019-04-15

Dane meteo z obszaru Polski uzyskane na podstawie danych udostępnionych przez Instytut Meteorologii i Gospodarki Wodnej – Państwowy Instytut Badawczy.

 

Wybierz Datę:    

       

TemperaturaWilgotnośćWiatrCiśnienieOpadyŚniegCzas trwania zjawisk
 Stacja t tx tn tng RH VA  wxwx mslp ppp RRR   cm mm wxwxwxwxwxwxwx
1961-08-14 14.3 19.8 7.1--- 4.7 1.7---- 0.0------------
1961-08-13 13.8 18.1 12.0--- 8.0 3.3---- 14.5------------
1961-08-12 19.6 24.6 16.0--- 6.0 2.3---- 17.9------------
1961-08-11 25.1 33.1 19.4--- 1.3 3.3---- 0.1------------
1961-08-10 22.3 27.9 18.1--- 3.7 1.7---- 0.4------------
1961-08-09 22.1 29.7 14.1--- 1.0 1.7---- 7.9------------
1961-08-08 19.1 23.9 16.6--- 6.7 2.3---- 0.8------------
1961-08-07 22.5 30.4 15.6--- 0.7 3.0---- 0.0------------
1961-08-06 21.7 29.1 12.1--- 1.0 2.0---- 0.0------------
1961-08-05 17.0 22.9 12.1--- 5.3 2.0---- 0.0------------
1961-08-04 16.5 21.7 12.1--- 5.3 2.0---- 0.0------------
1961-08-03 19.7 26.7 10.1--- 2.7 2.0---- 1.5------------
1961-08-02 17.4 25.1 9.4--- 2.3 2.3---- 0.0------------
1961-08-01 15.3 21.0 9.7--- 3.3 2.7---- 0.0------------
1961-07-31 13.9 19.0 11.6--- 4.3 2.3---- 0.1------------
1961-07-30 14.0 19.9 12.9--- 8.0 1.7---- 36.1------------
1961-07-29 16.7 23.7 13.7--- 7.0 2.0---- 20.3------------
1961-07-28 20.3 28.2 16.0--- 7.0 2.3---- 0.0------------
1961-07-27 20.7 27.0 11.7--- 6.3 2.7---- 0.0------------
1961-07-26 16.1 21.1 11.3--- 7.0 2.0---- 0.0------------
1961-07-25 14.3 19.9 11.5--- 7.3 2.0---- 0.0------------
1961-07-24 14.6 19.6 9.6--- 7.7 1.7---- 0.0------------
1961-07-23 16.3 21.2 7.6--- 1.3 1.7---- 0.0------------
1961-07-22 14.3 19.9 10.6--- 6.7 2.0---- 4.5------------
1961-07-21 15.3 21.2 11.7--- 6.0 2.7---- 0.0------------
1961-07-20 16.6 23.3 12.6--- 6.7 1.7---- 22.1------------
1961-07-19 15.3 23.3 6.8--- 4.7 1.7---- 7.4------------
1961-07-18 15.0 21.1 9.6--- 3.7 2.0---- 0.0------------
1961-07-17 16.2 22.9 9.7--- 8.0 1.7---- 4.1------------
1961-07-16 19.4 28.0 11.0--- 1.7 2.0---- 0.0------------
1961-07-15 18.8 27.0 6.6--- 0.7 2.7---- 0.0------------
1961-07-14 15.6 22.1 13.1--- 5.7 3.3---- 0.0------------
1961-07-13 22.5 29.6 12.0--- 3.0 2.0---- 0.0------------
1961-07-12 18.4 25.4 9.8--- 6.3 1.7---- 0.0------------
1961-07-11 15.5 21.3 7.1--- 4.3 2.7---- 0.0------------
1961-07-10 13.6 20.6 11.7--- 8.0 2.3---- 0.3------------
1961-07-09 16.3 24.1 5.9--- 4.3 1.7---- 2.6------------
1961-07-08 14.4 20.4 5.1--- 1.3 2.0---- 0.0------------
1961-07-07 13.7 19.9 5.3--- 5.7 3.0---- 0.0------------
1961-07-06 13.6 20.1 9.6--- 1.3 1.7---- 0.0------------
1961-07-05 17.0 21.1 14.8--- 6.7 3.3---- 1.4------------
1961-07-04 22.4 31.5 14.3--- 2.7 2.7---- 1.3------------
1961-07-03 23.0 30.3 10.5--- 0.0 1.3---- 0.0------------
1961-07-02 21.0 27.7 10.5--- 0.0 1.7---- 0.0------------
1961-07-01 19.3 25.3 10.9--- 0.0 2.3---- 0.0------------
1961-06-30 17.8 23.4 6.6--- 0.7 2.3---- 0.0------------
1961-06-29 15.5 20.4 5.6--- 6.7 2.3---- 0.0------------
1961-06-28 15.2 24.9 10.9--- 3.3 2.3---- 0.4------------
1961-06-27 24.4 31.7 14.7--- 1.0 1.7---- 0.0------------
1961-06-26 21.8 31.0 14.3--- 3.3 1.7---- 0.1------------
1961-06-25 21.5 28.5 10.0--- 2.7 2.3---- 0.0------------
1961-06-24 18.3 24.8 10.6--- 2.0 2.0---- 0.0------------
1961-06-23 16.0 21.4 11.3--- 5.7 1.7---- 4.6------------
1961-06-22 15.7 21.9 9.7--- 2.0 2.3---- 0.0------------
1961-06-21 16.4 22.4 5.7--- 1.3 1.3---- 0.0------------
1961-06-20 15.1 20.7 10.1--- 1.3 3.0---- 0.0------------
1961-06-19 20.8 27.4 11.9--- 3.0 3.0---- 0.2------------
1961-06-18 18.3 24.8 8.5--- 4.0 1.7---- 0.0------------
1961-06-17 15.7 21.4 7.7--- 1.7 2.0---- 0.0------------
1961-06-16 13.5 18.0 5.9--- 2.3 1.3---- 0.0------------
1165.1 ms

 

Źródłem pochodzenia danych jest Instytut Meteorologii i Gospodarki Wodnej – Państwowy Instytut Badawczy. Dane Instytutu Meteorologii i Gospodarki Wodnej – Państwowego Instytutu Badawczego zostały przetworzone.

Dane źródłowe można odnaleźć na stronie https://dane.imgw.pl